Time;durP1;ratioP1;P1;durP2;ratioP2;P2;SDS_P1;SDS_P2;PMS_P1;PMS_P2;Temp;Humidity;BMP_temperature;BMP_pressure;BME280_temperature;BME280_humidity;BME280_pressure;Samples;Min_cycle;Max_cycle;Signal;HPM_P1;HPM_P2
2021/07/26 00:02:19;;;;;;;9.43;5.45;;;17.90;99.90;;;;;;5072354;28;20051;-63
2021/07/26 00:04:45;;;;;;;8.25;3.80;;;17.80;99.90;;;;;;5067970;28;20053;-63
2021/07/26 00:07:12;;;;;;;6.45;4.00;;;17.70;99.90;;;;;;5068408;28;20079;-63
2021/07/26 00:09:38;;;;;;;5.03;3.15;;;17.70;99.90;;;;;;5068077;28;20048;-63
2021/07/26 00:12:05;;;;;;;8.18;3.45;;;17.60;99.90;;;;;;5068016;28;20079;-63
2021/07/26 00:14:31;;;;;;;4.47;3.38;;;17.60;99.90;;;;;;5067909;28;20065;-63
2021/07/26 00:16:57;;;;;;;6.13;3.00;;;17.50;99.90;;;;;;5067991;28;20044;-63
2021/07/26 00:19:23;;;;;;;5.28;3.58;;;17.40;99.90;;;;;;5073258;28;20107;-63
2021/07/26 00:21:50;;;;;;;6.05;5.18;;;17.40;99.90;;;;;;5067822;28;20079;-63
2021/07/26 00:24:19;;;;;;;5.93;3.63;;;17.40;99.90;;;;;;5075984;28;20044;-63
2021/07/26 00:26:46;;;;;;;7.15;4.20;;;17.40;99.90;;;;;;5077390;28;20048;-63
2021/07/26 00:29:12;;;;;;;7.75;3.67;;;17.40;99.90;;;;;;5068608;28;20133;-63
2021/07/26 00:31:38;;;;;;;7.40;3.65;;;17.40;99.90;;;;;;5075850;28;20048;-63
2021/07/26 00:34:23;;;;;;;6.05;4.78;;;17.30;99.90;;;;;;5071121;28;20068;-63
2021/07/26 00:36:52;;;;;;;7.47;4.70;;;17.40;99.90;;;;;;5067688;28;20044;-63
2021/07/26 00:39:21;;;;;;;8.77;5.25;;;17.40;99.90;;;;;;5067928;28;20063;-63
2021/07/26 00:41:47;;;;;;;7.55;6.75;;;17.40;99.90;;;;;;5067414;28;20049;-63
2021/07/26 00:44:15;;;;;;;12.35;8.05;;;17.50;99.90;;;;;;5075318;28;20072;-63
2021/07/26 00:46:41;;;;;;;8.98;5.40;;;17.50;99.90;;;;;;5072293;28;20048;-63
2021/07/26 00:49:10;;;;;;;7.60;5.28;;;17.50;99.90;;;;;;5076560;28;20041;-62
2021/07/26 00:51:38;;;;;;;9.85;6.10;;;17.50;99.90;;;;;;5067488;28;20052;-63
2021/07/26 00:54:04;;;;;;;7.63;5.30;;;17.40;99.90;;;;;;5080093;28;20046;-63
2021/07/26 00:56:30;;;;;;;9.32;6.10;;;17.40;99.90;;;;;;5072805;28;20559;-63
2021/07/26 00:58:57;;;;;;;6.93;6.22;;;17.20;99.90;;;;;;5066340;28;20049;-63
2021/07/26 01:01:23;;;;;;;9.98;6.70;;;17.10;99.90;;;;;;5069444;28;20591;-63
2021/07/26 01:03:48;;;;;;;8.95;6.85;;;17.00;99.90;;;;;;5072740;28;20044;-63
2021/07/26 01:06:14;;;;;;;13.73;8.45;;;17.00;99.90;;;;;;5072221;28;20049;-63
2021/07/26 01:08:40;;;;;;;8.93;6.03;;;17.00;99.90;;;;;;5066027;28;20110;-63
2021/07/26 01:11:07;;;;;;;8.02;5.00;;;17.00;99.90;;;;;;5065770;28;20040;-63
2021/07/26 01:13:34;;;;;;;5.80;5.20;;;17.00;99.90;;;;;;5065649;28;20037;-63
2021/07/26 01:16:01;;;;;;;8.98;5.45;;;16.90;99.90;;;;;;5065706;28;20045;-63
2021/07/26 01:18:31;;;;;;;7.00;5.07;;;16.90;99.90;;;;;;5067329;28;20047;-63
2021/07/26 01:20:57;;;;;;;6.97;4.53;;;16.90;99.90;;;;;;5072764;28;20131;-63
2021/07/26 01:23:24;;;;;;;32.33;8.10;;;16.80;99.90;;;;;;5065464;28;20065;-63
2021/07/26 01:25:51;;;;;;;12.45;5.88;;;16.80;99.90;;;;;;5083940;28;20070;-62
2021/07/26 01:28:18;;;;;;;6.15;4.57;;;16.70;99.90;;;;;;5065542;28;20105;-63
2021/07/26 01:30:45;;;;;;;5.78;5.13;;;16.70;99.90;;;;;;5065606;28;20068;-63
2021/07/26 01:33:13;;;;;;;11.73;7.60;;;16.80;99.90;;;;;;5065581;28;20519;-63
2021/07/26 01:35:39;;;;;;;6.40;5.70;;;16.70;99.90;;;;;;5068656;28;20045;-63
2021/07/26 01:38:05;;;;;;;6.28;5.28;;;16.80;99.90;;;;;;5065519;28;20603;-63
2021/07/26 01:40:36;;;;;;;6.70;6.10;;;16.70;99.90;;;;;;5065494;28;20107;-63
2021/07/26 01:43:04;;;;;;;7.43;6.72;;;16.70;99.90;;;;;;5065279;28;20051;-63
2021/07/26 01:45:31;;;;;;;6.00;5.40;;;16.70;99.90;;;;;;5065211;28;20099;-63
2021/07/26 01:48:23;;;;;;;5.35;4.85;;;16.60;99.90;;;;;;5072458;28;20048;-64
2021/07/26 01:51:09;;;;;;;24.08;8.38;;;16.60;99.90;;;;;;5068552;28;20048;-63
2021/07/26 01:53:35;;;;;;;104.55;12.88;;;16.60;99.90;;;;;;5074860;28;20064;-63
2021/07/26 01:56:01;;;;;;;130.70;12.57;;;16.60;99.90;;;;;;5040752;28;1098827;-63
2021/07/26 01:58:28;;;;;;;106.63;11.98;;;16.70;99.90;;;;;;5064978;28;20299;-63
2021/07/26 02:00:54;;;;;;;14.65;7.70;;;16.70;99.90;;;;;;5065973;28;20052;-63
2021/07/26 02:03:20;;;;;;;8.60;6.45;;;16.70;99.90;;;;;;5070280;28;20048;-63
2021/07/26 02:05:46;;;;;;;12.65;6.85;;;16.60;99.90;;;;;;5066073;28;20052;-63
2021/07/26 02:08:11;;;;;;;8.80;5.95;;;16.60;99.90;;;;;;5065986;28;20052;-63
2021/07/26 02:10:37;;;;;;;6.85;4.80;;;16.60;99.90;;;;;;5071500;28;20488;-63
2021/07/26 02:13:04;;;;;;;8.93;5.70;;;16.50;99.90;;;;;;5072918;28;20152;-63
2021/07/26 02:15:30;;;;;;;13.95;5.90;;;16.60;99.90;;;;;;5065707;28;20037;-63
2021/07/26 02:17:56;;;;;;;19.58;5.30;;;16.60;99.90;;;;;;5065619;28;20045;-63
2021/07/26 02:20:22;;;;;;;17.63;5.25;;;16.60;99.90;;;;;;5077082;28;20071;-63
2021/07/26 02:22:48;;;;;;;19.25;6.90;;;16.60;99.90;;;;;;5065460;28;20052;-62
2021/07/26 02:25:17;;;;;;;11.68;6.28;;;16.50;99.90;;;;;;5073164;28;20103;-63
2021/07/26 02:27:44;;;;;;;12.13;6.45;;;16.60;99.90;;;;;;5065483;28;20157;-63
2021/07/26 02:30:10;;;;;;;27.75;7.68;;;16.50;99.90;;;;;;5048714;28;20155;-63
2021/07/26 02:32:36;;;;;;;9.68;6.20;;;16.60;99.90;;;;;;5069728;28;20497;-63
2021/07/26 02:35:03;;;;;;;13.20;6.38;;;16.60;99.90;;;;;;5073236;28;20048;-63
2021/07/26 02:37:28;;;;;;;14.48;6.45;;;16.60;99.90;;;;;;5065702;28;20099;-63
2021/07/26 02:39:54;;;;;;;7.75;6.53;;;16.50;99.90;;;;;;5065045;28;20048;-63
2021/07/26 02:42:20;;;;;;;7.15;6.55;;;16.50;99.90;;;;;;5065669;28;20060;-63
2021/07/26 02:44:46;;;;;;;5.63;5.13;;;16.50;99.90;;;;;;5066395;28;20045;-63
2021/07/26 02:47:12;;;;;;;6.35;5.75;;;16.50;99.90;;;;;;5067457;28;20124;-62
2021/07/26 02:49:38;;;;;;;5.68;5.20;;;16.50;99.90;;;;;;5068740;28;20040;-63
2021/07/26 02:52:04;;;;;;;6.50;4.50;;;16.40;99.90;;;;;;5065093;28;20045;-62
2021/07/26 02:54:30;;;;;;;5.95;5.25;;;16.40;99.90;;;;;;5078280;28;20071;-63
2021/07/26 02:56:56;;;;;;;6.38;5.35;;;16.40;99.90;;;;;;5065262;28;20049;-62
2021/07/26 02:59:21;;;;;;;5.95;4.97;;;16.30;99.90;;;;;;5065347;28;20052;-63
2021/07/26 03:01:49;;;;;;;5.25;4.72;;;16.30;99.90;;;;;;5070539;28;20481;-63
2021/07/26 03:04:15;;;;;;;5.72;4.90;;;16.20;99.90;;;;;;5065585;28;20045;-63
2021/07/26 03:06:41;;;;;;;5.35;4.85;;;16.10;99.90;;;;;;5066004;28;20041;-63
2021/07/26 03:09:07;;;;;;;36.90;6.47;;;16.10;99.90;;;;;;5064740;28;20056;-63
2021/07/26 03:11:33;;;;;;;10.35;5.10;;;16.00;99.90;;;;;;5064914;28;20061;-63
2021/07/26 03:13:58;;;;;;;5.35;4.53;;;15.90;99.90;;;;;;5064583;28;20040;-63
2021/07/26 03:16:24;;;;;;;8.15;5.47;;;15.90;99.90;;;;;;5064733;28;20078;-63
2021/07/26 03:18:50;;;;;;;45.00;5.85;;;15.80;99.90;;;;;;5068161;28;20406;-63
2021/07/26 03:21:16;;;;;;;3.40;3.10;;;15.80;99.90;;;;;;5065301;28;20049;-63
2021/07/26 03:23:43;;;;;;;4.03;3.28;;;15.80;99.90;;;;;;5065014;28;20416;-63
2021/07/26 03:26:08;;;;;;;2.75;2.55;;;15.90;99.90;;;;;;5077059;28;20075;-63
2021/07/26 03:28:34;;;;;;;3.78;3.08;;;15.80;99.90;;;;;;5065615;28;20045;-63
2021/07/26 03:31:01;;;;;;;45.83;4.03;;;15.80;99.90;;;;;;5067715;28;20079;-63
2021/07/26 03:33:27;;;;;;;2.80;2.60;;;15.80;99.90;;;;;;5070589;28;20071;-63
2021/07/26 03:35:53;;;;;;;2.67;2.40;;;15.80;99.90;;;;;;5079196;28;20048;-63
2021/07/26 03:38:20;;;;;;;3.15;2.65;;;15.80;99.90;;;;;;5075208;28;20045;-63
2021/07/26 03:40:47;;;;;;;3.85;3.55;;;15.80;99.90;;;;;;5064375;28;20072;-63
2021/07/26 03:43:13;;;;;;;5.32;4.00;;;15.80;99.90;;;;;;5064774;28;20051;-63
2021/07/26 03:45:39;;;;;;;4.57;4.18;;;15.80;99.90;;;;;;5064752;28;20045;-63
2021/07/26 03:48:06;;;;;;;4.82;4.43;;;15.80;99.90;;;;;;5073069;28;20052;-63
2021/07/26 03:50:31;;;;;;;5.28;4.07;;;15.80;99.90;;;;;;5068993;28;20065;-63
2021/07/26 03:52:58;;;;;;;10.52;4.55;;;15.90;99.90;;;;;;5068179;28;20052;-63
2021/07/26 03:55:29;;;;;;;17.30;4.55;;;15.90;99.90;;;;;;5068876;28;20052;-63
2021/07/26 03:57:55;;;;;;;16.65;4.53;;;15.90;99.90;;;;;;5065213;28;20041;-63
2021/07/26 04:00:23;;;;;;;46.80;5.63;;;15.80;99.90;;;;;;5064394;28;20048;-63
2021/07/26 04:03:02;;;;;;;37.08;5.18;;;15.70;99.90;;;;;;5069278;28;20045;-63
2021/07/26 04:08:12;;;;;;;40.38;5.97;;;15.60;99.90;;;;;;5064279;28;20071;-63
2021/07/26 04:10:41;;;;;;;32.40;5.78;;;15.70;99.90;;;;;;5064473;28;20037;-63
2021/07/26 04:13:07;;;;;;;39.42;6.53;;;15.70;99.90;;;;;;5064206;28;20056;-63
2021/07/26 04:15:33;;;;;;;45.85;6.70;;;15.80;99.90;;;;;;5064897;28;20037;-63
2021/07/26 04:18:00;;;;;;;23.10;5.90;;;15.80;99.90;;;;;;5064834;28;20583;-63
2021/07/26 04:20:26;;;;;;;13.57;6.15;;;15.80;99.90;;;;;;5076822;28;20121;-63
2021/07/26 04:22:52;;;;;;;16.92;5.75;;;15.90;99.90;;;;;;5050195;28;20052;-63
2021/07/26 04:25:18;;;;;;;10.32;4.90;;;16.00;99.90;;;;;;5081106;28;20041;-63
2021/07/26 04:27:44;;;;;;;5.70;5.20;;;15.90;99.90;;;;;;5067590;28;20045;-63
2021/07/26 04:30:14;;;;;;;5.70;5.18;;;16.00;99.90;;;;;;5069002;28;20040;-63
2021/07/26 04:32:45;;;;;;;5.45;4.82;;;16.00;99.90;;;;;;5073870;28;20493;-63
2021/07/26 04:35:12;;;;;;;5.57;4.82;;;16.00;99.90;;;;;;5076005;28;20041;-63
2021/07/26 04:37:38;;;;;;;5.35;4.90;;;16.00;99.90;;;;;;5067942;28;20041;-63
2021/07/26 04:40:08;;;;;;;6.53;5.93;;;16.00;99.90;;;;;;5068495;28;20076;-63
2021/07/26 04:42:38;;;;;;;4.78;4.32;;;16.10;99.90;;;;;;5067660;28;20061;-63
2021/07/26 04:45:06;;;;;;;5.78;3.72;;;16.10;99.90;;;;;;5067119;28;20507;-63
2021/07/26 04:47:31;;;;;;;4.85;4.32;;;16.20;99.90;;;;;;5050275;28;20072;-63
2021/07/26 04:49:58;;;;;;;4.88;4.47;;;16.30;99.90;;;;;;5067547;28;20041;-63
2021/07/26 04:52:24;;;;;;;5.45;4.95;;;16.30;99.90;;;;;;5067404;28;20524;-63
2021/07/26 04:54:50;;;;;;;6.30;5.80;;;16.30;99.90;;;;;;5067361;28;20065;-63
2021/07/26 04:57:22;;;;;;;5.60;5.10;;;16.30;99.90;;;;;;5067971;28;20056;-63
2021/07/26 04:59:48;;;;;;;5.90;5.40;;;16.40;99.90;;;;;;5067049;28;20048;-63
2021/07/26 05:02:13;;;;;;;8.10;7.40;;;16.40;99.90;;;;;;5071978;28;20040;-63
2021/07/26 05:04:39;;;;;;;6.10;5.60;;;16.40;99.90;;;;;;5067338;28;20041;-63
2021/07/26 05:07:05;;;;;;;5.90;5.40;;;16.50;99.90;;;;;;5073522;28;20049;-63
2021/07/26 05:09:38;;;;;;;7.35;5.93;;;16.50;99.90;;;;;;5074556;28;20109;-63
2021/07/26 05:12:12;;;;;;;6.45;5.88;;;16.60;99.90;;;;;;5067398;28;20105;-63
2021/07/26 05:14:43;;;;;;;7.00;6.30;;;16.60;99.90;;;;;;5067140;28;20052;-63
2021/07/26 05:17:09;;;;;;;6.75;6.05;;;16.60;99.90;;;;;;5066700;28;20056;-63
2021/07/26 05:19:36;;;;;;;5.68;5.25;;;16.60;99.90;;;;;;5076783;28;20098;-63
2021/07/26 05:22:03;;;;;;;6.10;5.60;;;16.60;99.90;;;;;;5066531;28;20045;-63
2021/07/26 05:24:28;;;;;;;7.53;5.97;;;16.60;99.90;;;;;;5076124;28;20044;-63
2021/07/26 05:27:01;;;;;;;7.95;7.15;;;16.60;99.90;;;;;;5074254;28;20050;-63
2021/07/26 05:29:28;;;;;;;8.95;8.15;;;16.60;99.90;;;;;;5070963;28;20099;-63
2021/07/26 05:31:54;;;;;;;9.63;8.80;;;16.60;99.90;;;;;;5067785;28;20045;-63
2021/07/26 05:34:21;;;;;;;14.38;12.98;;;16.70;99.90;;;;;;5070361;28;20044;-62
2021/07/26 05:36:47;;;;;;;14.00;12.60;;;16.80;99.90;;;;;;5066505;28;20048;-63
2021/07/26 05:39:13;;;;;;;11.60;10.43;;;16.90;99.90;;;;;;5067369;28;20041;-63
2021/07/26 05:41:38;;;;;;;13.57;12.38;;;16.90;99.90;;;;;;5067521;28;20041;-63
2021/07/26 05:44:04;;;;;;;15.00;13.70;;;17.00;99.90;;;;;;5066356;28;20059;-63
2021/07/26 05:46:30;;;;;;;14.73;13.32;;;17.10;99.90;;;;;;5066253;28;20048;-63
2021/07/26 05:48:56;;;;;;;15.45;13.95;;;17.20;99.90;;;;;;5068955;28;20420;-63
2021/07/26 05:51:22;;;;;;;16.42;14.73;;;17.20;99.90;;;;;;5066449;28;20115;-63
2021/07/26 05:53:48;;;;;;;15.70;14.30;;;17.30;99.90;;;;;;5076404;28;20504;-63
2021/07/26 05:56:14;;;;;;;16.85;15.23;;;17.40;99.90;;;;;;5067206;28;20060;-63
2021/07/26 05:58:45;;;;;;;17.90;16.23;;;17.40;99.90;;;;;;5066238;28;20049;-63
2021/07/26 06:03:56;;;;;;;20.27;18.27;;;17.50;99.90;;;;;;5071821;28;20131;-63
2021/07/26 06:06:22;;;;;;;20.15;18.02;;;17.60;99.90;;;;;;5074145;28;20090;-63
2021/07/26 06:08:47;;;;;;;19.33;17.33;;;17.60;99.90;;;;;;5072685;28;20049;-63
2021/07/26 06:11:13;;;;;;;20.05;17.98;;;17.70;99.90;;;;;;5066010;28;20132;-63
2021/07/26 06:13:39;;;;;;;22.25;20.05;;;17.70;99.90;;;;;;5066867;28;20118;-63
2021/07/26 06:16:09;;;;;;;9.98;8.43;;;17.80;99.90;;;;;;5078849;28;20045;-63
2021/07/26 06:18:35;;;;;;;20.05;17.75;;;17.90;99.90;;;;;;5067365;28;20073;-63
2021/07/26 06:21:07;;;;;;;19.63;17.70;;;17.90;99.90;;;;;;5065282;28;20044;-63
2021/07/26 06:23:34;;;;;;;18.38;16.60;;;17.90;99.90;;;;;;5065692;28;20045;-63
2021/07/26 06:26:05;;;;;;;18.17;16.38;;;18.00;99.90;;;;;;5077480;28;20045;-63
2021/07/26 06:28:31;;;;;;;18.45;16.65;;;18.10;99.90;;;;;;5075227;28;20041;-63
2021/07/26 06:30:57;;;;;;;21.52;19.27;;;18.10;99.90;;;;;;5071774;28;20068;-63
2021/07/26 06:33:23;;;;;;;20.77;18.67;;;18.20;99.90;;;;;;5076654;28;20408;-63
2021/07/26 06:35:49;;;;;;;19.60;17.80;;;18.30;99.90;;;;;;5067589;28;20048;-63
2021/07/26 06:38:15;;;;;;;18.95;17.20;;;18.40;99.90;;;;;;5066063;28;20041;-63
2021/07/26 06:40:44;;;;;;;18.63;16.92;;;18.50;99.90;;;;;;5066062;28;20489;-63
2021/07/26 06:43:10;;;;;;;20.85;18.70;;;18.50;99.90;;;;;;5065175;28;20113;-63
2021/07/26 06:45:35;;;;;;;14.48;13.00;;;18.60;99.90;;;;;;5065405;28;20053;-63
2021/07/26 06:48:01;;;;;;;16.80;15.20;;;18.60;99.90;;;;;;5073725;28;20047;-63
2021/07/26 06:50:27;;;;;;;16.45;14.90;;;18.60;99.90;;;;;;5069556;28;20411;-63
2021/07/26 06:52:53;;;;;;;15.75;14.25;;;18.70;99.90;;;;;;5067716;28;20041;-63
2021/07/26 06:55:19;;;;;;;16.02;14.52;;;18.70;99.90;;;;;;5069757;28;20535;-63
2021/07/26 06:57:45;;;;;;;17.85;16.00;;;18.70;99.90;;;;;;5065855;28;20044;-63
2021/07/26 07:00:11;;;;;;;16.67;14.98;;;18.80;99.90;;;;;;5066120;28;20056;-63
2021/07/26 07:02:37;;;;;;;18.38;15.68;;;18.80;99.90;;;;;;5070886;28;20045;-63
2021/07/26 07:05:04;;;;;;;13.10;11.75;;;18.90;99.90;;;;;;5070029;28;20044;-63
2021/07/26 07:07:30;;;;;;;13.02;11.48;;;19.00;99.90;;;;;;5065704;28;20097;-63
2021/07/26 07:09:56;;;;;;;16.80;12.32;;;19.00;99.90;;;;;;5064816;28;20048;-63
2021/07/26 07:12:22;;;;;;;14.18;12.85;;;19.10;99.90;;;;;;5065207;28;20089;-63
2021/07/26 07:14:47;;;;;;;13.52;12.05;;;19.10;99.90;;;;;;5065424;28;20048;-63
2021/07/26 07:17:13;;;;;;;13.27;11.80;;;19.20;99.90;;;;;;5064728;28;20425;-63
2021/07/26 07:19:44;;;;;;;12.18;10.75;;;19.20;99.90;;;;;;5075614;28;20045;-63
2021/07/26 07:22:10;;;;;;;12.30;11.13;;;19.30;99.90;;;;;;5064487;28;20502;-63
2021/07/26 07:24:35;;;;;;;11.40;10.23;;;19.30;99.90;;;;;;5076015;28;20044;-63
2021/07/26 07:27:01;;;;;;;12.10;10.90;;;19.40;99.90;;;;;;5064925;28;20044;-63
2021/07/26 07:29:27;;;;;;;12.27;10.15;;;19.40;99.90;;;;;;5064596;28;20048;-63
2021/07/26 07:31:53;;;;;;;10.90;9.80;;;19.50;99.90;;;;;;5068966;28;20049;-63
2021/07/26 07:34:19;;;;;;;10.15;9.15;;;19.60;99.90;;;;;;5070759;28;20045;-63
2021/07/26 07:36:46;;;;;;;11.95;9.77;;;19.70;99.90;;;;;;5065737;28;20044;-63
2021/07/26 07:39:12;;;;;;;9.90;8.88;;;19.80;99.90;;;;;;5064428;28;20064;-63
2021/07/26 07:41:38;;;;;;;9.73;7.72;;;20.00;99.90;;;;;;5064909;28;20041;-63
2021/07/26 07:44:04;;;;;;;7.80;7.00;;;20.00;99.90;;;;;;5064662;28;20136;-63
2021/07/26 07:46:30;;;;;;;10.77;7.85;;;20.20;99.90;;;;;;5065231;28;20510;-63
2021/07/26 07:48:56;;;;;;;8.32;7.53;;;20.30;99.90;;;;;;5069679;28;20527;-64
2021/07/26 07:51:22;;;;;;;8.50;7.35;;;20.30;99.90;;;;;;5065161;28;20041;-63
2021/07/26 07:53:51;;;;;;;8.05;7.25;;;20.40;99.90;;;;;;5077329;28;20055;-63
2021/07/26 07:56:17;;;;;;;9.10;7.65;;;20.60;99.90;;;;;;5079116;28;20053;-63
2021/07/26 07:58:43;;;;;;;6.60;5.93;;;20.60;99.90;;;;;;5068172;28;20535;-63
2021/07/26 08:01:09;;;;;;;7.18;6.32;;;20.60;99.90;;;;;;5070214;28;20048;-63
2021/07/26 08:03:35;;;;;;;9.70;6.10;;;20.70;99.90;;;;;;5071051;28;20068;-63
2021/07/26 08:06:02;;;;;;;7.25;5.35;;;20.80;99.90;;;;;;5050429;28;20050;-63
2021/07/26 08:08:29;;;;;;;6.90;5.50;;;20.80;99.90;;;;;;5067958;28;20045;-63
2021/07/26 08:10:55;;;;;;;7.57;5.05;;;20.90;99.90;;;;;;5068160;28;20075;-63
2021/07/26 08:13:22;;;;;;;6.75;4.97;;;20.90;99.90;;;;;;5050559;28;20049;-63
2021/07/26 08:15:53;;;;;;;8.75;5.35;;;21.00;99.90;;;;;;5069236;28;20049;-63
2021/07/26 08:18:20;;;;;;;7.80;5.68;;;21.10;99.90;;;;;;5068153;28;20493;-62
2021/07/26 08:20:46;;;;;;;5.68;4.95;;;21.10;99.90;;;;;;5068731;28;20041;-63
2021/07/26 08:23:13;;;;;;;5.05;4.40;;;21.20;99.90;;;;;;5069008;28;20060;-63
2021/07/26 08:25:39;;;;;;;6.97;5.35;;;21.20;99.90;;;;;;5083889;28;20085;-63
2021/07/26 08:28:05;;;;;;;5.22;4.72;;;21.20;99.90;;;;;;5075116;28;20112;-63
2021/07/26 08:30:33;;;;;;;5.50;4.20;;;21.20;99.90;;;;;;5067915;28;20045;-63
2021/07/26 08:33:01;;;;;;;7.72;4.80;;;21.30;99.90;;;;;;5075728;28;20075;-63
2021/07/26 08:35:27;;;;;;;5.25;4.30;;;21.30;99.90;;;;;;5077764;28;20045;-63
2021/07/26 08:37:54;;;;;;;4.65;3.97;;;21.40;99.90;;;;;;5068092;28;20051;-63
2021/07/26 08:40:23;;;;;;;6.10;4.50;;;21.40;99.90;;;;;;5068668;28;20084;-63
2021/07/26 08:42:49;;;;;;;5.28;4.15;;;21.50;99.90;;;;;;5067483;28;20045;-63
2021/07/26 08:45:15;;;;;;;6.85;4.68;;;21.70;99.90;;;;;;5068402;28;20128;-63
2021/07/26 08:47:43;;;;;;;5.93;4.68;;;21.80;99.90;;;;;;5067491;28;20045;-63
2021/07/26 08:50:11;;;;;;;7.43;4.93;;;21.80;99.90;;;;;;5067485;28;20067;-63
2021/07/26 08:52:40;;;;;;;6.32;4.68;;;21.90;99.90;;;;;;5067787;28;20066;-63
2021/07/26 08:55:12;;;;;;;5.60;4.28;;;21.90;99.90;;;;;;5068919;28;20053;-64
2021/07/26 08:57:45;;;;;;;6.43;5.28;;;21.90;99.90;;;;;;5067110;28;20045;-63
2021/07/26 09:00:19;;;;;;;6.10;5.00;;;21.90;99.90;;;;;;5072686;28;20045;-63
2021/07/26 09:02:46;;;;;;;8.68;5.30;;;21.90;99.90;;;;;;5073062;28;20041;-63
2021/07/26 09:05:13;;;;;;;6.75;4.45;;;21.90;99.90;;;;;;5067281;28;20045;-63
2021/07/26 09:07:44;;;;;;;5.30;3.65;;;21.90;99.90;;;;;;5066952;28;20055;-63
2021/07/26 09:10:13;;;;;;;5.68;4.20;;;21.80;99.90;;;;;;5067250;28;20048;-63
2021/07/26 09:12:40;;;;;;;6.05;4.40;;;21.80;99.90;;;;;;5067079;28;20072;-63
2021/07/26 09:15:22;;;;;;;5.22;4.00;;;21.80;99.90;;;;;;5067016;28;20049;-63
2021/07/26 09:17:48;;;;;;;6.10;4.65;;;21.80;99.90;;;;;;5067026;28;20045;-63
2021/07/26 09:20:16;;;;;;;6.30;3.70;;;21.80;99.90;;;;;;5082963;28;20190;-63
2021/07/26 09:22:43;;;;;;;7.43;4.25;;;21.80;99.90;;;;;;5070420;28;20040;-63
2021/07/26 09:25:27;;;;;;;4.72;3.83;;;21.80;99.90;;;;;;5075309;28;20071;-63
2021/07/26 09:28:16;;;;;;;5.68;3.92;;;21.90;99.90;;;;;;5067067;28;20047;-63
2021/07/26 09:30:49;;;;;;;;;;;21.90;99.90;;;;;;5064170;28;20138;-63
2021/07/26 09:33:27;;;;;;;7.28;4.32;;;21.90;99.90;;;;;;5076418;28;19921;-63
2021/07/26 09:36:13;;;;;;;4.80;3.78;;;21.90;99.90;;;;;;5067166;28;20067;-63
2021/07/26 09:38:43;;;;;;;6.18;3.95;;;22.00;99.90;;;;;;5067563;28;20101;-63
2021/07/26 09:41:10;;;;;;;5.05;4.55;;;22.00;99.90;;;;;;5067365;28;20048;-63
2021/07/26 09:43:36;;;;;;;6.28;4.15;;;22.00;99.90;;;;;;5067824;28;20096;-63
2021/07/26 09:46:02;;;;;;;5.72;3.80;;;22.00;99.90;;;;;;5066592;28;20041;-63
2021/07/26 09:48:32;;;;;;;3.95;3.30;;;22.10;99.90;;;;;;5077828;28;20049;-63
2021/07/26 09:51:00;;;;;;;4.57;3.67;;;22.10;99.90;;;;;;5066375;28;20049;-63
2021/07/26 09:53:27;;;;;;;4.65;3.60;;;22.30;99.90;;;;;;5073262;28;20051;-63
2021/07/26 09:55:54;;;;;;;5.85;3.65;;;22.40;99.90;;;;;;5065979;28;20049;-63
2021/07/26 09:58:41;;;;;;;3.70;3.33;;;22.50;99.90;;;;;;5066016;28;20080;-63
2021/07/26 10:01:09;;;;;;;4.00;3.05;;;22.50;99.90;;;;;;5068522;28;20041;-63
2021/07/26 10:03:39;;;;;;;3.58;2.55;;;22.60;99.90;;;;;;5069182;28;20036;-63
2021/07/26 10:06:10;;;;;;;4.35;3.08;;;22.60;99.90;;;;;;5065910;28;20451;-63
2021/07/26 10:08:37;;;;;;;4.95;3.22;;;22.60;99.90;;;;;;5066657;28;20049;-63
2021/07/26 10:11:03;;;;;;;6.28;3.78;;;22.80;99.90;;;;;;5066343;28;20052;-63
2021/07/26 10:13:29;;;;;;;5.55;3.38;;;22.90;99.90;;;;;;5065769;28;20048;-63
2021/07/26 10:15:56;;;;;;;3.63;3.22;;;23.00;99.90;;;;;;5065901;28;20045;-63
2021/07/26 10:18:22;;;;;;;4.22;3.45;;;23.00;99.90;;;;;;5066507;28;20048;-63
2021/07/26 10:20:57;;;;;;;6.53;3.63;;;23.10;99.90;;;;;;5076211;28;20045;-63
2021/07/26 10:23:49;;;;;;;6.25;3.88;;;23.10;99.90;;;;;;5065478;28;20047;-63
2021/07/26 10:26:17;;;;;;;5.53;3.28;;;23.10;99.90;;;;;;5016490;28;20054;-63
2021/07/26 10:28:56;;;;;;;5.43;3.28;;;23.10;99.90;;;;;;4984457;28;20055;-63
2021/07/26 10:31:28;;;;;;;;;;;23.20;99.90;;;;;;4992723;28;20106;-63
2021/07/26 10:34:03;;;;;;;4.43;3.20;;;23.10;99.90;;;;;;4987398;28;19922;-63
2021/07/26 10:36:41;;;;;;;3.83;2.78;;;23.20;99.90;;;;;;4987182;28;20118;-63
2021/07/26 10:39:08;;;;;;;5.20;3.45;;;23.20;99.90;;;;;;4985503;28;20051;-63
2021/07/26 10:41:43;;;;;;;5.18;3.35;;;23.30;99.90;;;;;;5001581;28;20050;-63
2021/07/26 10:44:29;;;;;;;5.40;3.47;;;23.40;99.90;;;;;;5004150;28;20054;-63
2021/07/26 10:46:59;;;;;;;4.75;3.50;;;23.40;99.90;;;;;;4990754;28;20058;-63
2021/07/26 10:49:43;;;;;;;4.80;3.08;;;23.50;99.90;;;;;;4996634;28;20062;-63
2021/07/26 10:52:29;;;;;;;5.60;3.53;;;23.50;99.90;;;;;;4984136;28;20054;-63
2021/07/26 10:54:58;;;;;;;4.13;3.03;;;23.60;99.90;;;;;;4991504;28;20059;-63
2021/07/26 10:57:43;;;;;;;3.67;2.42;;;23.60;99.90;;;;;;4983874;28;20070;-63
2021/07/26 11:00:18;;;;;;;3.33;2.60;;;23.60;99.90;;;;;;4985224;28;20051;-63
2021/07/26 11:02:48;;;;;;;4.68;2.72;;;23.60;99.90;;;;;;5040681;28;20068;-63
2021/07/26 11:05:26;;;;;;;4.53;2.60;;;23.60;99.90;;;;;;5066138;28;20072;-63
2021/07/26 11:08:30;;;;;;;5.28;3.17;;;23.60;99.90;;;;;;5047353;28;20041;-63
2021/07/26 11:10:59;;;;;;;4.95;3.42;;;23.60;99.90;;;;;;5022895;28;20057;-63
2021/07/26 11:13:44;;;;;;;4.95;2.83;;;23.60;99.90;;;;;;5022819;28;20053;-63
2021/07/26 11:16:10;;;;;;;5.35;3.40;;;23.70;99.90;;;;;;5022851;28;20054;-63
2021/07/26 11:18:40;;;;;;;3.30;2.60;;;23.70;99.90;;;;;;5022538;28;20057;-63
2021/07/26 11:21:21;;;;;;;4.85;2.90;;;23.80;99.90;;;;;;5022545;28;20058;-63
2021/07/26 11:23:52;;;;;;;3.03;2.72;;;23.90;99.90;;;;;;5022294;28;20088;-63
2021/07/26 11:26:23;;;;;;;3.67;2.55;;;23.90;99.90;;;;;;5022416;28;20049;-63
2021/07/26 11:28:55;;;;;;;4.00;2.53;;;23.90;99.90;;;;;;5022023;28;20054;-63
2021/07/26 11:31:30;;;;;;;4.28;3.03;;;24.00;99.90;;;;;;5025870;28;20077;-63
2021/07/26 11:34:05;;;;;;;3.33;2.33;;;24.10;99.90;;;;;;5027295;28;20054;-63
2021/07/26 11:36:31;;;;;;;5.05;2.38;;;24.20;99.90;;;;;;5026804;28;20140;-63
2021/07/26 11:39:06;;;;;;;3.92;2.58;;;24.20;99.90;;;;;;5026596;28;20047;-63
2021/07/26 11:41:32;;;;;;;4.07;2.50;;;24.20;99.90;;;;;;5044871;28;20560;-63
2021/07/26 11:43:58;;;;;;;3.38;2.33;;;24.20;99.90;;;;;;5068594;28;20068;-63
2021/07/26 11:46:25;;;;;;;4.63;2.92;;;24.20;99.90;;;;;;5068397;28;20045;-63
2021/07/26 11:48:53;;;;;;;3.55;2.70;;;24.20;99.90;;;;;;5073758;28;20096;-63
2021/07/26 11:51:25;;;;;;;3.65;2.60;;;24.30;99.90;;;;;;5068790;28;20111;-63
2021/07/26 11:54:05;;;;;;;3.08;2.50;;;24.20;99.90;;;;;;5069399;28;20119;-63
2021/07/26 11:56:31;;;;;;;4.85;2.13;;;24.20;99.90;;;;;;5068781;28;20049;-63
2021/07/26 11:59:29;;;;;;;3.78;2.58;;;24.10;99.90;;;;;;5068345;28;20128;-63
2021/07/26 12:02:02;;;;;;;3.85;2.90;;;24.20;99.90;;;;;;5026000;28;20054;-63
2021/07/26 12:04:29;;;;;;;3.30;2.20;;;24.40;99.90;;;;;;5025922;28;20041;-63
2021/07/26 12:07:03;;;;;;;3.92;2.35;;;24.40;99.90;;;;;;5026415;28;20145;-63
2021/07/26 12:09:29;;;;;;;3.50;2.55;;;24.30;99.90;;;;;;5026540;28;20545;-63
2021/07/26 12:12:10;;;;;;;3.65;2.50;;;24.30;99.90;;;;;;5026406;28;20065;-63
2021/07/26 12:14:37;;;;;;;3.05;2.38;;;24.30;99.90;;;;;;5026094;28;20116;-63
2021/07/26 12:17:23;;;;;;;5.82;2.40;;;24.50;99.90;;;;;;5025347;28;20046;-63
2021/07/26 12:20:00;;;;;;;2.83;2.40;;;24.50;99.90;;;;;;5025911;28;20066;-63
2021/07/26 12:22:26;;;;;;;2.40;2.03;;;24.40;99.90;;;;;;5026437;28;20537;-63
2021/07/26 12:25:00;;;;;;;3.03;2.50;;;24.30;99.90;;;;;;5025609;28;20064;-63
2021/07/26 12:27:37;;;;;;;3.03;2.10;;;24.20;99.90;;;;;;5025522;28;20081;-63
2021/07/26 12:30:12;;;;;;;2.80;2.10;;;24.30;99.90;;;;;;5028221;28;20607;-63
2021/07/26 12:32:52;;;;;;;3.78;2.15;;;24.40;99.90;;;;;;5026679;28;20068;-63
2021/07/26 12:35:18;;;;;;;5.03;2.58;;;24.60;99.90;;;;;;5019868;28;20038;-63
2021/07/26 12:38:20;;;;;;;3.67;2.40;;;24.80;99.90;;;;;;5037522;28;20057;-63
2021/07/26 12:41:04;;;;;;;2.72;2.20;;;24.80;99.90;;;;;;5067459;28;20061;-63
2021/07/26 12:43:30;;;;;;;2.30;1.67;;;24.70;99.90;;;;;;5067417;28;20092;-63
2021/07/26 12:45:59;;;;;;;3.05;2.05;;;24.80;99.90;;;;;;5068654;28;20041;-63
2021/07/26 12:48:26;;;;;;;4.00;2.15;;;24.80;99.90;;;;;;5071200;28;20147;-63
2021/07/26 12:50:52;;;;;;;3.10;2.33;;;24.90;99.90;;;;;;5067727;28;20052;-63
2021/07/26 12:53:19;;;;;;;1.85;1.65;;;24.90;99.90;;;;;;5073369;28;20055;-63
2021/07/26 12:55:46;;;;;;;5.60;1.88;;;25.00;99.90;;;;;;5073864;28;20052;-63
2021/07/26 12:58:15;;;;;;;2.75;2.13;;;25.10;99.90;;;;;;5068107;28;20094;-63